Time,TemperatureF,DewpointF,PressureIn,WindDirection,WindDirectionDegrees,WindSpeedMPH,WindSpeedGustMPH,Humidity,HourlyPrecipIn,Conditions,Clouds,dailyrainin,SoftwareType,DateUTC
2013-08-15 00:01:00,51.2,49.2,30.05,WNW,282,0.0,0.0,93,0.00,RA,,0.00,WeatherDisplay:10.37,2013-08-15 04:01:00,
2013-08-15 00:02:00,51.2,49.2,30.05,WNW,282,0.0,0.0,93,0.00,RA,,0.00,WeatherDisplay:10.37,2013-08-15 04:02:00,
2013-08-15 00:07:00,51.0,49.0,30.06,WNW,282,0.0,0.0,93,0.00,RA,,0.00,WeatherDisplay:10.37,2013-08-15 04:07:00,
2013-08-15 00:12:00,50.7,48.7,30.06,WNW,282,0.1,1.2,93,0.00,CLR,,0.00,WeatherDisplay:10.37,2013-08-15 04:12:00,
2013-08-15 00:17:00,50.6,48.7,30.06,WNW,282,0.2,1.2,93,0.00,CLR,,0.00,WeatherDisplay:10.37,2013-08-15 04:17:00,
2013-08-15 00:22:00,50.5,48.6,30.06,WNW,282,0.0,0.0,93,0.00,CLR,,0.00,WeatherDisplay:10.37,2013-08-15 04:22:00,
2013-08-15 00:27:00,50.4,48.5,30.06,WNW,282,0.0,0.0,93,0.00,CLR,,0.00,WeatherDisplay:10.37,2013-08-15 04:27:00,
2013-08-15 00:32:00,50.2,48.3,30.06,WNW,282,0.0,0.0,93,0.00,CLR,,0.00,WeatherDisplay:10.37,2013-08-15 04:32:00,
2013-08-15 00:37:00,50.0,48.1,30.06,WNW,282,0.0,0.0,93,0.00,CLR,,0.00,WeatherDisplay:10.37,2013-08-15 04:37:00,
2013-08-15 00:42:00,49.8,47.9,30.06,WNW,282,0.0,0.0,93,0.00,CLR,,0.00,WeatherDisplay:10.37,2013-08-15 04:42:00,
2013-08-15 00:47:00,49.7,47.8,30.06,WNW,282,0.0,0.0,93,0.00,CLR,,0.00,WeatherDisplay:10.37,2013-08-15 04:47:00,
2013-08-15 00:52:00,49.5,47.6,30.06,WNW,282,0.0,0.0,93,0.00,CLR,,0.00,WeatherDisplay:10.37,2013-08-15 04:52:00,
2013-08-15 00:57:00,49.4,47.5,30.06,WNW,282,0.0,0.0,93,0.00,CLR,,0.00,WeatherDisplay:10.37,2013-08-15 04:57:00,
2013-08-15 01:02:00,49.2,47.3,30.06,WNW,282,0.0,0.0,93,0.00,CLR,,0.00,WeatherDisplay:10.37,2013-08-15 05:02:00,
2013-08-15 01:07:00,49.0,47.1,30.06,WNW,282,0.0,0.0,93,0.00,CLR,,0.00,WeatherDisplay:10.37,2013-08-15 05:07:00,
2013-08-15 01:12:00,48.9,47.0,30.06,WNW,282,0.0,0.0,93,0.00,CLR,,0.00,WeatherDisplay:10.37,2013-08-15 05:12:00,
2013-08-15 01:17:00,48.9,47.0,30.06,WNW,282,0.0,0.0,93,0.00,CLR,,0.00,WeatherDisplay:10.37,2013-08-15 05:17:00,
2013-08-15 01:22:00,48.8,46.9,30.06,WNW,282,0.0,0.0,93,0.00,CLR,,0.00,WeatherDisplay:10.37,2013-08-15 05:22:00,
2013-08-15 01:27:00,48.6,46.7,30.06,WNW,282,0.0,0.0,93,0.00,CLR,,0.00,WeatherDisplay:10.37,2013-08-15 05:27:00,
2013-08-15 01:32:00,48.5,46.6,30.06,WNW,282,0.0,0.0,93,0.00,CLR,,0.00,WeatherDisplay:10.37,2013-08-15 05:32:00,
2013-08-15 01:37:00,48.4,46.5,30.06,WNW,282,0.0,0.0,93,0.00,CLR,,0.00,WeatherDisplay:10.37,2013-08-15 05:37:00,
2013-08-15 01:42:00,48.3,46.4,30.06,WNW,282,0.0,0.0,93,0.00,CLR,,0.00,WeatherDisplay:10.37,2013-08-15 05:42:00,
2013-08-15 01:47:00,48.2,46.3,30.06,WNW,282,0.0,0.0,93,0.00,CLR,,0.00,WeatherDisplay:10.37,2013-08-15 05:47:00,
2013-08-15 01:52:00,48.0,46.1,30.06,WNW,282,0.0,0.0,93,0.00,CLR,,0.00,WeatherDisplay:10.37,2013-08-15 05:52:00,
2013-08-15 01:57:00,47.9,46.0,30.07,WNW,282,0.0,0.0,93,0.00,CLR,,0.00,WeatherDisplay:10.37,2013-08-15 05:57:00,
2013-08-15 02:02:00,47.7,45.8,30.07,WNW,282,0.0,0.0,93,0.00,CLR,,0.00,WeatherDisplay:10.37,2013-08-15 06:02:00,
2013-08-15 02:07:00,47.5,45.6,30.07,WNW,282,0.0,0.0,93,0.00,CLR,,0.00,WeatherDisplay:10.37,2013-08-15 06:07:00,
2013-08-15 02:12:00,47.6,45.7,30.06,WNW,282,0.0,0.0,93,0.00,CLR,,0.00,WeatherDisplay:10.37,2013-08-15 06:12:00,
2013-08-15 02:17:00,47.6,45.7,30.07,WNW,282,0.0,0.0,93,0.00,CLR,,0.00,WeatherDisplay:10.37,2013-08-15 06:17:00,
2013-08-15 02:22:00,47.6,45.7,30.07,WNW,282,0.0,0.0,93,0.00,CLR,,0.00,WeatherDisplay:10.37,2013-08-15 06:22:00,
2013-08-15 02:27:00,47.6,45.7,30.07,WNW,282,0.0,0.0,93,0.00,CLR,,0.00,WeatherDisplay:10.37,2013-08-15 06:27:00,
2013-08-15 02:32:00,47.6,45.7,30.07,WNW,282,0.0,1.2,93,0.00,CLR,,0.00,WeatherDisplay:10.37,2013-08-15 06:32:00,
2013-08-15 02:37:00,47.8,45.9,30.07,WNW,282,1.3,2.3,93,0.00,CLR,,0.00,WeatherDisplay:10.37,2013-08-15 06:37:00,
2013-08-15 02:42:00,47.8,45.9,30.07,WNW,282,0.0,0.0,93,0.00,CLR,,0.00,WeatherDisplay:10.37,2013-08-15 06:42:00,
2013-08-15 02:47:00,47.8,45.9,30.07,WNW,282,0.0,0.0,93,0.00,CLR,,0.00,WeatherDisplay:10.37,2013-08-15 06:47:00,
2013-08-15 02:52:00,47.6,45.7,30.07,WNW,282,0.0,0.0,93,0.00,CLR,,0.00,WeatherDisplay:10.37,2013-08-15 06:52:00,
2013-08-15 02:57:00,47.4,45.5,30.07,WNW,282,0.0,0.0,93,0.00,CLR,,0.00,WeatherDisplay:10.37,2013-08-15 06:57:00,
2013-08-15 03:02:00,47.3,45.4,30.07,WNW,282,0.7,1.2,93,0.00,CLR,,0.00,WeatherDisplay:10.37,2013-08-15 07:02:00,
2013-08-15 03:07:00,47.2,45.3,30.07,WNW,282,1.3,2.3,93,0.00,CLR,,0.00,WeatherDisplay:10.37,2013-08-15 07:07:00,
2013-08-15 03:12:00,47.4,45.5,30.07,WNW,282,0.0,0.0,93,0.00,CLR,,0.00,WeatherDisplay:10.37,2013-08-15 07:12:00,
2013-08-15 03:17:00,47.4,45.5,30.08,WNW,282,0.0,0.0,93,0.00,CLR,,0.00,WeatherDisplay:10.37,2013-08-15 07:17:00,
2013-08-15 03:22:00,47.4,45.5,30.08,WNW,282,0.0,0.0,93,0.00,CLR,,0.00,WeatherDisplay:10.37,2013-08-15 07:22:00,
2013-08-15 03:27:00,47.2,45.3,30.08,WNW,282,0.0,0.0,93,0.00,CLR,,0.00,WeatherDisplay:10.37,2013-08-15 07:27:00,
2013-08-15 03:32:00,47.2,45.3,30.08,WNW,282,0.0,0.0,93,0.00,CLR,,0.00,WeatherDisplay:10.37,2013-08-15 07:32:00,
2013-08-15 03:37:00,47.0,45.1,30.08,WNW,282,0.0,0.0,93,0.00,CLR,,0.00,WeatherDisplay:10.37,2013-08-15 07:37:00,
2013-08-15 03:42:00,46.8,44.9,30.08,WNW,282,0.1,1.2,93,0.00,CLR,,0.00,WeatherDisplay:10.37,2013-08-15 07:42:00,
2013-08-15 03:47:00,46.7,44.8,30.08,WNW,282,0.0,0.0,93,0.00,CLR,,0.00,WeatherDisplay:10.37,2013-08-15 07:47:00,
2013-08-15 03:52:00,46.6,44.7,30.08,WNW,282,0.0,0.0,93,0.00,CLR,,0.00,WeatherDisplay:10.37,2013-08-15 07:52:00,
2013-08-15 03:57:00,46.4,44.5,30.08,WNW,282,0.8,2.3,93,0.00,CLR,,0.00,WeatherDisplay:10.37,2013-08-15 07:57:00,
2013-08-15 04:02:00,46.3,44.4,30.08,WNW,282,0.0,1.2,93,0.00,CLR,,0.00,WeatherDisplay:10.37,2013-08-15 08:02:00,
2013-08-15 04:07:00,46.2,44.3,30.08,WNW,282,0.0,0.0,93,0.00,CLR,,0.00,WeatherDisplay:10.37,2013-08-15 08:07:00,
2013-08-15 04:12:00,46.2,44.3,30.08,WNW,282,0.0,0.0,93,0.00,CLR,,0.00,WeatherDisplay:10.37,2013-08-15 08:12:00,
2013-08-15 04:17:00,46.2,44.3,30.08,WNW,282,0.0,0.0,93,0.00,CLR,,0.00,WeatherDisplay:10.37,2013-08-15 08:17:00,
2013-08-15 04:22:00,46.2,44.3,30.08,WNW,282,0.0,0.0,93,0.00,CLR,,0.00,WeatherDisplay:10.37,2013-08-15 08:22:00,
2013-08-15 04:27:00,46.1,44.2,30.08,WNW,282,0.0,0.0,93,0.00,CLR,,0.00,WeatherDisplay:10.37,2013-08-15 08:27:00,
2013-08-15 04:32:00,46.1,44.2,30.09,WNW,282,0.0,0.0,93,0.00,CLR,,0.00,WeatherDisplay:10.37,2013-08-15 08:32:00,
2013-08-15 04:37:00,46.1,44.2,30.09,WNW,282,0.0,0.0,93,0.00,CLR,,0.00,WeatherDisplay:10.37,2013-08-15 08:37:00,
2013-08-15 04:42:00,46.0,44.1,30.09,WNW,282,0.0,0.0,93,0.00,CLR,,0.00,WeatherDisplay:10.37,2013-08-15 08:42:00,
2013-08-15 04:47:00,45.8,43.9,30.09,WNW,282,0.0,0.0,93,0.00,CLR,,0.00,WeatherDisplay:10.37,2013-08-15 08:47:00,
2013-08-15 04:52:00,45.7,43.8,30.09,WNW,282,0.0,0.0,93,0.00,CLR,,0.00,WeatherDisplay:10.37,2013-08-15 08:52:00,
2013-08-15 04:57:00,45.6,43.7,30.09,WNW,282,0.0,0.0,93,0.00,CLR,,0.00,WeatherDisplay:10.37,2013-08-15 08:57:00,
2013-08-15 05:02:00,45.5,43.6,30.09,WNW,282,0.6,1.2,93,0.00,CLR,,0.00,WeatherDisplay:10.37,2013-08-15 09:02:00,
2013-08-15 05:07:00,45.3,43.4,30.09,WNW,282,0.0,0.0,93,0.00,CLR,,0.00,WeatherDisplay:10.37,2013-08-15 09:07:00,
2013-08-15 05:12:00,45.2,43.3,30.09,WNW,282,0.0,0.0,93,0.00,CLR,,0.00,WeatherDisplay:10.37,2013-08-15 09:12:00,
2013-08-15 05:17:00,45.1,43.2,30.09,WNW,282,0.2,1.2,93,0.00,CLR,,0.00,WeatherDisplay:10.37,2013-08-15 09:17:00,
2013-08-15 05:22:00,44.9,43.0,30.10,WNW,282,1.5,2.3,93,0.00,CLR,,0.00,WeatherDisplay:10.37,2013-08-15 09:22:00,
2013-08-15 05:27:00,44.9,43.0,30.10,WNW,282,0.0,0.0,93,0.00,CLR,,0.00,WeatherDisplay:10.37,2013-08-15 09:27:00,
2013-08-15 05:32:00,44.9,43.0,30.10,WNW,282,0.0,0.0,93,0.00,CLR,,0.00,WeatherDisplay:10.37,2013-08-15 09:32:00,
2013-08-15 05:37:00,44.9,43.0,30.10,WNW,282,0.0,0.0,93,0.00,CLR,,0.00,WeatherDisplay:10.37,2013-08-15 09:37:00,
2013-08-15 05:42:00,44.9,43.0,30.10,WNW,282,0.0,0.0,93,0.00,CLR,,0.00,WeatherDisplay:10.37,2013-08-15 09:42:00,
2013-08-15 05:47:00,44.9,43.0,30.11,WNW,282,0.0,0.0,93,0.00,CLR,,0.00,WeatherDisplay:10.37,2013-08-15 09:47:00,
2013-08-15 05:52:00,44.8,42.9,30.10,WNW,282,0.0,0.0,93,0.00,CLR,,0.00,WeatherDisplay:10.37,2013-08-15 09:52:00,
2013-08-15 05:57:00,44.6,42.7,30.10,WNW,282,0.0,0.0,93,0.00,CLR,,0.00,WeatherDisplay:10.37,2013-08-15 09:57:00,
2013-08-15 06:02:00,44.6,42.7,30.10,WNW,282,0.0,0.0,93,0.00,CLR,,0.00,WeatherDisplay:10.37,2013-08-15 10:02:00,
2013-08-15 06:07:00,44.6,42.7,30.11,WNW,282,0.0,0.0,93,0.00,CLR,,0.00,WeatherDisplay:10.37,2013-08-15 10:07:00,
2013-08-15 06:12:00,44.5,42.6,30.11,WNW,282,0.0,0.0,93,0.00,CLR,,0.00,WeatherDisplay:10.37,2013-08-15 10:12:00,
2013-08-15 06:17:00,44.4,42.5,30.11,WNW,282,0.0,0.0,93,0.00,CLR,,0.00,WeatherDisplay:10.37,2013-08-15 10:17:00,
2013-08-15 06:22:00,44.3,42.4,30.11,WNW,282,0.0,0.0,93,0.00,CLR,,0.00,WeatherDisplay:10.37,2013-08-15 10:22:00,
2013-08-15 06:27:00,44.3,42.4,30.11,WNW,282,0.0,0.0,93,0.00,CLR,,0.00,WeatherDisplay:10.37,2013-08-15 10:27:00,
2013-08-15 06:32:00,44.3,42.4,30.11,WNW,282,0.0,0.0,93,0.00,CLR,,0.00,WeatherDisplay:10.37,2013-08-15 10:32:00,
2013-08-15 06:37:00,44.5,42.6,30.12,WNW,282,0.0,0.0,93,0.00,CLR,,0.00,WeatherDisplay:10.37,2013-08-15 10:37:00,
2013-08-15 06:42:00,44.6,42.7,30.12,WNW,282,0.0,0.0,93,0.00,CLR,,0.00,WeatherDisplay:10.37,2013-08-15 10:42:00,
2013-08-15 06:47:00,44.6,42.7,30.12,WNW,282,0.0,0.0,93,0.00,CLR,,0.00,WeatherDisplay:10.37,2013-08-15 10:47:00,
2013-08-15 06:52:00,44.7,42.8,30.12,WNW,282,0.0,0.0,93,0.00,CLR,,0.00,WeatherDisplay:10.37,2013-08-15 10:52:00,
2013-08-15 06:57:00,44.8,42.9,30.12,WNW,282,0.0,0.0,93,0.00,CLR,,0.00,WeatherDisplay:10.37,2013-08-15 10:57:00,
2013-08-15 07:02:00,45.0,43.1,30.12,WNW,282,0.0,0.0,93,0.00,CLR,,0.00,WeatherDisplay:10.37,2013-08-15 11:02:00,
2013-08-15 07:07:00,45.2,43.3,30.12,WNW,282,0.0,0.0,93,0.00,CLR,,0.00,WeatherDisplay:10.37,2013-08-15 11:07:00,
2013-08-15 07:12:00,45.9,44.0,30.12,WNW,282,0.0,0.0,93,0.00,CLR,,0.00,WeatherDisplay:10.37,2013-08-15 11:12:00,
2013-08-15 07:17:00,46.9,45.0,30.12,WNW,282,0.0,0.0,93,0.00,CLR,,0.00,WeatherDisplay:10.37,2013-08-15 11:17:00,
2013-08-15 07:22:00,48.3,46.4,30.12,WNW,282,0.0,0.0,93,0.00,CLR,,0.00,WeatherDisplay:10.37,2013-08-15 11:22:00,
2013-08-15 07:27:00,50.1,48.2,30.12,WNW,282,0.0,0.0,93,0.00,CLR,,0.00,WeatherDisplay:10.37,2013-08-15 11:27:00,
2013-08-15 07:32:00,51.3,49.3,30.13,WNW,282,0.0,0.0,93,0.00,CLR,,0.00,WeatherDisplay:10.37,2013-08-15 11:32:00,
2013-08-15 07:37:00,52.3,50.6,30.13,WNW,282,0.0,0.0,94,0.00,CLR,,0.00,WeatherDisplay:10.37,2013-08-15 11:37:00,
2013-08-15 07:42:00,53.1,51.1,30.13,WNW,282,0.0,0.0,93,0.00,CLR,,0.00,WeatherDisplay:10.37,2013-08-15 11:42:00,
2013-08-15 07:47:00,53.5,51.8,30.13,WNW,282,0.0,1.2,94,0.00,CLR,,0.00,WeatherDisplay:10.37,2013-08-15 11:47:00,
2013-08-15 07:52:00,54.1,52.4,30.13,WNW,282,0.0,1.2,94,0.00,CLR,,0.00,WeatherDisplay:10.37,2013-08-15 11:52:00,
2013-08-15 07:57:00,54.6,52.6,30.13,WNW,282,0.2,1.2,93,0.00,CLR,,0.00,WeatherDisplay:10.37,2013-08-15 11:57:00,
2013-08-15 08:02:00,55.0,53.0,30.13,WNW,282,0.1,0.0,93,0.00,CLR,,0.00,WeatherDisplay:10.37,2013-08-15 12:02:00,
2013-08-15 08:07:00,55.5,53.8,30.13,WNW,282,0.1,0.0,94,0.00,CLR,,0.00,WeatherDisplay:10.37,2013-08-15 12:07:00,
2013-08-15 08:12:00,55.7,53.7,30.13,WNW,282,0.0,0.0,93,0.00,CLR,,0.00,WeatherDisplay:10.37,2013-08-15 12:12:00,
2013-08-15 08:17:00,55.3,53.3,30.13,WNW,282,0.3,1.2,93,0.00,CLR,,0.00,WeatherDisplay:10.37,2013-08-15 12:17:00,
2013-08-15 08:22:00,55.3,53.3,30.13,SW,232,1.2,2.3,93,0.00,CLR,,0.00,WeatherDisplay:10.37,2013-08-15 12:22:00,
2013-08-15 08:27:00,55.4,53.4,30.13,SE,135,0.9,2.3,93,0.00,CLR,,0.00,WeatherDisplay:10.37,2013-08-15 12:27:00,
2013-08-15 08:32:00,55.5,53.5,30.14,SE,135,0.2,1.2,93,0.00,CLR,,0.00,WeatherDisplay:10.37,2013-08-15 12:32:00,
2013-08-15 08:37:00,55.7,54.0,30.14,South,189,0.2,1.2,94,0.00,CLR,,0.00,WeatherDisplay:10.37,2013-08-15 12:37:00,
2013-08-15 08:42:00,56.2,54.2,30.14,WSW,242,0.1,1.2,93,0.00,CLR,,0.00,WeatherDisplay:10.37,2013-08-15 12:42:00,
2013-08-15 08:47:00,57.0,55.0,30.14,WSW,242,1.1,2.3,93,0.00,CLR,,0.00,WeatherDisplay:10.37,2013-08-15 12:47:00,
2013-08-15 08:52:00,57.9,55.9,30.14,West,276,0.0,1.2,93,0.00,CLR,,0.00,WeatherDisplay:10.37,2013-08-15 12:52:00,
2013-08-15 08:57:00,59.0,56.7,30.14,West,276,0.0,1.2,92,0.00,CLR,,0.00,WeatherDisplay:10.37,2013-08-15 12:57:00,
2013-08-15 09:02:00,59.5,56.3,30.13,West,276,0.1,1.2,89,0.00,CLR,,0.00,WeatherDisplay:10.37,2013-08-15 13:02:00,
2013-08-15 09:07:00,59.9,56.6,30.14,WSW,251,0.8,1.2,89,0.00,CLR,,0.00,WeatherDisplay:10.37,2013-08-15 13:07:00,
2013-08-15 09:12:00,60.1,56.5,30.14,SSE,165,1.9,2.3,88,0.00,CLR,,0.00,WeatherDisplay:10.37,2013-08-15 13:12:00,
2013-08-15 09:17:00,60.8,57.2,30.13,East,80,1.2,1.2,88,0.00,CLR,,0.00,WeatherDisplay:10.37,2013-08-15 13:17:00,
2013-08-15 09:22:00,61.5,58.2,30.14,East,85,0.5,2.3,89,0.00,CLR,,0.00,WeatherDisplay:10.37,2013-08-15 13:22:00,
2013-08-15 09:27:00,62.3,57.7,30.13,ESE,116,1.2,2.3,85,0.00,CLR,,0.00,WeatherDisplay:10.37,2013-08-15 13:27:00,
2013-08-15 09:32:00,63.4,57.8,30.14,West,275,1.1,3.5,82,0.00,CLR,,0.00,WeatherDisplay:10.37,2013-08-15 13:32:00,
2013-08-15 09:37:00,64.7,58.7,30.14,West,275,0.3,1.2,81,0.00,CLR,,0.00,WeatherDisplay:10.37,2013-08-15 13:37:00,
2013-08-15 09:42:00,65.8,59.5,30.14,North,9,2.4,3.5,80,0.00,CLR,,0.00,WeatherDisplay:10.37,2013-08-15 13:42:00,
2013-08-15 09:47:00,66.7,59.6,30.14,North,355,0.9,1.2,78,0.00,CLR,,0.00,WeatherDisplay:10.37,2013-08-15 13:47:00,
2013-08-15 09:52:00,67.0,58.4,30.14,West,273,2.2,3.5,74,0.00,CLR,,0.00,WeatherDisplay:10.37,2013-08-15 13:52:00,
2013-08-15 09:58:00,67.2,57.5,30.14,North,360,2.8,3.5,71,0.00,CLR,,0.00,WeatherDisplay:10.37,2013-08-15 13:58:00,
2013-08-15 10:03:00,68.0,59.0,30.13,NNW,342,2.8,3.5,73,0.00,CLR,,0.00,WeatherDisplay:10.37,2013-08-15 14:03:00,
2013-08-15 10:08:00,68.9,59.1,30.14,NNW,327,0.1,1.2,71,0.00,CLR,,0.00,WeatherDisplay:10.37,2013-08-15 14:08:00,
2013-08-15 10:13:00,69.3,57.9,30.14,NW,323,1.3,2.3,67,0.00,CLR,,0.00,WeatherDisplay:10.37,2013-08-15 14:13:00,
2013-08-15 10:18:00,69.7,58.7,30.14,NE,45,1.8,3.5,68,0.00,CLR,,0.00,WeatherDisplay:10.37,2013-08-15 14:18:00,
2013-08-15 10:23:00,70.2,57.0,30.14,SSE,154,1.9,3.5,63,0.00,CLR,,0.00,WeatherDisplay:10.37,2013-08-15 14:23:00,
2013-08-15 10:28:00,69.8,57.1,30.14,WSW,248,2.7,3.5,64,0.00,CLR,,0.00,WeatherDisplay:10.37,2013-08-15 14:28:00,
2013-08-15 10:33:00,69.3,57.5,30.14,NW,321,0.2,1.2,66,0.00,CLR,,0.00,WeatherDisplay:10.37,2013-08-15 14:33:00,
2013-08-15 10:38:00,69.7,58.7,30.14,NW,324,3.5,4.6,68,0.00,CLR,,0.00,WeatherDisplay:10.37,2013-08-15 14:38:00,
2013-08-15 10:43:00,70.3,59.2,30.14,West,268,3.5,4.6,68,0.00,CLR,,0.00,WeatherDisplay:10.37,2013-08-15 14:43:00,
2013-08-15 10:48:00,69.2,56.1,30.14,NW,305,2.8,3.5,63,0.00,CLR,,0.00,WeatherDisplay:10.37,2013-08-15 14:48:00,
2013-08-15 10:53:00,68.5,57.5,30.14,South,175,0.2,1.2,68,0.00,CLR,,0.00,WeatherDisplay:10.37,2013-08-15 14:53:00,
2013-08-15 10:58:00,68.5,56.7,30.14,SW,224,0.4,1.2,66,0.00,CLR,,0.00,WeatherDisplay:10.37,2013-08-15 14:58:00,
2013-08-15 11:04:00,69.4,59.6,30.14,North,5,2.2,3.5,71,0.00,CLR,,0.00,WeatherDisplay:10.37,2013-08-15 15:04:00,
2013-08-15 11:09:00,70.6,60.3,30.14,NE,45,2.6,3.5,70,0.00,CLR,,0.00,WeatherDisplay:10.37,2013-08-15 15:09:00,
2013-08-15 11:14:00,71.7,56.6,30.14,North,355,1.5,4.0,59,0.00,CLR,,0.00,WeatherDisplay:10.37,2013-08-15 15:14:00,
2013-08-15 11:19:00,72.7,56.1,30.14,NNE,24,2.5,4.6,56,0.00,CLR,,0.00,WeatherDisplay:10.37,2013-08-15 15:19:00,
2013-08-15 11:24:00,73.4,57.2,30.14,North,355,3.6,5.8,57,0.00,CLR,,0.00,WeatherDisplay:10.37,2013-08-15 15:24:00,
2013-08-15 11:29:00,73.7,57.0,30.14,NNE,28,0.7,2.3,56,0.00,CLR,,0.00,WeatherDisplay:10.37,2013-08-15 15:29:00,
2013-08-15 11:34:00,74.2,57.5,30.14,North,9,3.8,5.8,56,0.00,CLR,,0.00,WeatherDisplay:10.37,2013-08-15 15:34:00,
2013-08-15 11:39:00,74.4,55.6,30.14,NE,53,1.3,3.5,52,0.00,CLR,,0.00,WeatherDisplay:10.37,2013-08-15 15:39:00,
2013-08-15 11:44:00,73.3,57.1,30.13,NW,323,4.7,6.9,57,0.00,CLR,,0.00,WeatherDisplay:10.37,2013-08-15 15:44:00,
2013-08-15 11:50:00,73.5,56.3,30.13,NW,304,1.2,3.5,55,0.00,CLR,,0.00,WeatherDisplay:10.37,2013-08-15 15:50:00,
2013-08-15 11:55:00,72.7,56.1,30.14,WNW,294,4.2,8.1,56,0.00,CLR,,0.00,WeatherDisplay:10.37,2013-08-15 15:55:00,
2013-08-15 12:00:00,71.9,54.3,30.13,WSW,256,3.1,7.0,54,0.00,CLR,,0.00,WeatherDisplay:10.37,2013-08-15 16:00:00,
2013-08-15 12:05:00,72.1,57.0,30.14,NW,312,3.4,4.6,59,0.00,CLR,,0.00,WeatherDisplay:10.37,2013-08-15 16:05:00,
2013-08-15 12:10:00,72.8,55.2,30.13,NW,313,1.2,3.5,54,0.00,CLR,,0.00,WeatherDisplay:10.37,2013-08-15 16:10:00,
2013-08-15 12:15:00,72.2,56.1,30.13,WNW,295,2.3,4.6,57,0.00,CLR,,0.00,WeatherDisplay:10.37,2013-08-15 16:15:00,
2013-08-15 12:21:00,71.9,57.7,30.13,WNW,283,3.0,6.0,61,0.00,CLR,,0.00,WeatherDisplay:10.37,2013-08-15 16:21:00,
2013-08-15 12:26:00,71.6,53.5,30.12,WSW,255,1.0,5.0,53,0.00,CLR,,0.00,WeatherDisplay:10.37,2013-08-15 16:26:00,
2013-08-15 12:31:00,71.6,56.5,30.12,WNW,296,3.1,4.6,59,0.00,CLR,,0.00,WeatherDisplay:10.37,2013-08-15 16:31:00,
2013-08-15 12:36:00,71.7,55.2,30.12,NW,318,3.2,5.8,56,0.00,CLR,,0.00,WeatherDisplay:10.37,2013-08-15 16:36:00,
2013-08-15 12:41:00,72.1,55.5,30.11,SSW,204,3.6,5.8,56,0.00,CLR,,0.00,WeatherDisplay:10.37,2013-08-15 16:41:00,
2013-08-15 12:46:00,72.6,55.5,30.11,WNW,292,4.0,8.1,55,0.00,CLR,,0.00,WeatherDisplay:10.37,2013-08-15 16:46:00,
2013-08-15 12:51:00,73.4,56.7,30.11,NW,318,7.5,9.2,56,0.00,CLR,,0.00,WeatherDisplay:10.37,2013-08-15 16:51:00,
2013-08-15 12:56:00,74.4,56.7,30.11,North,355,5.3,6.9,54,0.00,CLR,,0.00,WeatherDisplay:10.37,2013-08-15 16:56:00,
2013-08-15 13:01:00,74.1,56.4,30.11,SW,235,5.0,5.8,54,0.00,CLR,,0.00,WeatherDisplay:10.37,2013-08-15 17:01:00,
2013-08-15 13:06:00,73.7,55.5,30.11,West,273,3.6,4.6,53,0.00,CLR,,0.00,WeatherDisplay:10.37,2013-08-15 17:06:00,
2013-08-15 13:11:00,73.4,57.2,30.10,West,263,3.4,4.6,57,0.00,CLR,,0.00,WeatherDisplay:10.37,2013-08-15 17:11:00,
2013-08-15 13:16:00,73.7,57.5,30.10,West,269,3.7,5.8,57,0.00,CLR,,0.00,WeatherDisplay:10.37,2013-08-15 17:16:00,
2013-08-15 13:22:00,73.5,57.3,30.10,WSW,247,2.8,5.8,57,0.00,CLR,,0.00,WeatherDisplay:10.37,2013-08-15 17:22:00,
2013-08-15 13:27:00,73.1,55.5,30.10,SSW,196,0.5,1.2,54,0.00,CLR,,0.00,WeatherDisplay:10.37,2013-08-15 17:27:00,
2013-08-15 13:32:00,73.5,57.3,30.10,West,267,4.2,6.9,57,0.00,CLR,,0.00,WeatherDisplay:10.37,2013-08-15 17:32:00,
2013-08-15 13:37:00,73.7,56.0,30.10,West,273,4.4,6.9,54,0.00,CLR,,0.00,WeatherDisplay:10.37,2013-08-15 17:37:00,
2013-08-15 13:42:00,73.9,56.7,30.10,WNW,284,0.6,2.3,55,0.00,CLR,,0.00,WeatherDisplay:10.37,2013-08-15 17:42:00,
2013-08-15 13:47:00,74.4,57.2,30.10,WSW,243,5.1,9.2,55,0.00,CLR,,0.00,WeatherDisplay:10.37,2013-08-15 17:47:00,
2013-08-15 13:53:00,74.5,57.8,30.09,South,180,2.9,6.9,56,0.00,CLR,,0.00,WeatherDisplay:10.37,2013-08-15 17:53:00,
2013-08-15 13:58:00,74.6,54.7,30.09,WNW,294,3.5,3.5,50,0.00,CLR,,0.00,WeatherDisplay:10.37,2013-08-15 17:58:00,
2013-08-15 14:07:00,74.2,57.0,30.09,West,269,5.6,9.2,55,0.00,CLR,,0.00,WeatherDisplay:10.37,2013-08-15 18:07:00,
2013-08-15 14:13:00,74.3,56.0,30.09,NW,306,5.0,10.0,53,0.00,,,0.00,weatherlink.com 1.10,2013-08-15 18:13:00,
2013-08-15 14:25:00,75.1,54.6,30.08,WSW,254,2.3,3.5,49,0.00,CLR,,0.00,WeatherDisplay:10.37,2013-08-15 18:25:00,
2013-08-15 14:30:00,75.5,56.6,30.08,West,268,2.1,4.6,52,0.00,CLR,,0.00,WeatherDisplay:10.37,2013-08-15 18:30:00,
2013-08-15 14:35:00,75.7,55.7,30.08,West,260,4.3,9.2,50,0.00,CLR,,0.00,WeatherDisplay:10.37,2013-08-15 18:35:00,
2013-08-15 14:40:00,75.5,56.6,30.08,NW,325,4.2,6.9,52,0.00,CLR,,0.00,WeatherDisplay:10.37,2013-08-15 18:40:00,
2013-08-15 14:46:00,75.6,58.3,30.08,NW,312,2.0,5.0,55,0.00,CLR,,0.00,WeatherDisplay:10.37,2013-08-15 18:46:00,
2013-08-15 14:51:00,76.6,57.6,30.08,NW,326,3.0,6.0,52,0.00,CLR,,0.00,WeatherDisplay:10.37,2013-08-15 18:51:00,
2013-08-15 14:56:00,75.9,59.6,30.08,NNW,336,2.3,3.5,57,0.00,CLR,,0.00,WeatherDisplay:10.37,2013-08-15 18:56:00,
2013-08-15 15:01:00,76.1,56.1,30.08,NNW,345,5.3,8.1,50,0.00,CLR,,0.00,WeatherDisplay:10.37,2013-08-15 19:01:00,
2013-08-15 15:06:00,75.4,54.3,30.08,NW,321,2.3,3.5,48,0.00,CLR,,0.00,WeatherDisplay:10.37,2013-08-15 19:06:00,
2013-08-15 15:11:00,75.2,54.2,30.08,WSW,246,7.2,10.4,48,0.00,CLR,,0.00,WeatherDisplay:10.37,2013-08-15 19:11:00,
2013-08-15 15:17:00,75.3,55.9,30.08,West,269,3.2,5.8,51,0.00,CLR,,0.00,WeatherDisplay:10.37,2013-08-15 19:17:00,
2013-08-15 15:22:00,75.7,55.2,30.07,NW,317,2.1,3.5,49,0.00,CLR,,0.00,WeatherDisplay:10.37,2013-08-15 19:22:00,
2013-08-15 15:27:00,76.4,54.1,30.07,NNW,338,4.4,6.9,46,0.00,CLR,,0.00,WeatherDisplay:10.37,2013-08-15 19:27:00,
2013-08-15 15:32:00,77.2,57.1,30.07,NNW,334,1.8,3.5,50,0.00,CLR,,0.00,WeatherDisplay:10.37,2013-08-15 19:32:00,
2013-08-15 15:37:00,77.4,54.4,30.07,NNE,12,5.4,11.5,45,0.00,CLR,,0.00,WeatherDisplay:10.37,2013-08-15 19:37:00,
2013-08-15 15:42:00,77.3,56.6,30.07,NNW,335,4.7,4.7,49,0.00,CLR,,0.00,WeatherDisplay:10.37,2013-08-15 19:42:00,
2013-08-15 15:47:00,78.0,56.7,30.07,NNE,14,2.5,3.5,48,0.00,CLR,,0.00,WeatherDisplay:10.37,2013-08-15 19:47:00,
2013-08-15 15:52:00,78.7,54.3,30.07,NW,321,3.3,6.9,43,0.00,CLR,,0.00,WeatherDisplay:10.37,2013-08-15 19:52:00,
2013-08-15 15:58:00,79.3,56.1,30.07,NNE,13,3.8,4.6,45,0.00,CLR,,0.00,WeatherDisplay:10.37,2013-08-15 19:58:00,
2013-08-15 16:04:00,79.4,55.0,30.07,NW,323,3.8,4.6,43,0.00,CLR,,0.00,WeatherDisplay:10.37,2013-08-15 20:04:00,
2013-08-15 16:09:00,79.0,53.9,30.07,WNW,299,4.9,6.9,42,0.00,CLR,,0.00,WeatherDisplay:10.37,2013-08-15 20:09:00,
2013-08-15 16:14:00,79.3,55.5,30.07,NNW,327,3.9,5.8,44,0.00,CLR,,0.00,WeatherDisplay:10.37,2013-08-15 20:14:00,
2013-08-15 16:20:00,79.8,54.7,30.07,West,273,0.7,1.2,42,0.00,CLR,,0.00,WeatherDisplay:10.37,2013-08-15 20:20:00,
2013-08-15 16:25:00,79.4,53.0,30.06,WSW,251,2.1,3.5,40,0.00,CLR,,0.00,WeatherDisplay:10.37,2013-08-15 20:25:00,
2013-08-15 16:31:00,78.2,51.2,30.06,WSW,257,3.6,4.0,39,0.00,CLR,,0.00,WeatherDisplay:10.37,2013-08-15 20:31:00,
2013-08-15 16:36:00,77.4,53.1,30.06,NW,307,4.5,5.8,43,0.00,CLR,,0.00,WeatherDisplay:10.37,2013-08-15 20:36:00,
2013-08-15 16:41:00,77.5,53.9,30.06,NW,309,3.1,6.9,44,0.00,CLR,,0.00,WeatherDisplay:10.37,2013-08-15 20:41:00,
2013-08-15 16:46:00,77.5,52.6,30.06,West,266,2.7,3.5,42,0.00,CLR,,0.00,WeatherDisplay:10.37,2013-08-15 20:46:00,
2013-08-15 16:51:00,77.2,51.7,30.06,West,267,2.5,4.6,41,0.00,CLR,,0.00,WeatherDisplay:10.37,2013-08-15 20:51:00,
2013-08-15 16:56:00,77.4,55.0,30.06,NNW,344,3.0,3.5,46,0.00,CLR,,0.00,WeatherDisplay:10.37,2013-08-15 20:56:00,
2013-08-15 17:03:00,77.8,54.1,30.06,West,274,4.4,6.0,44,0.00,CLR,,0.00,WeatherDisplay:10.37,2013-08-15 21:03:00,
2013-08-15 17:08:00,77.5,52.6,30.06,NW,317,3.2,4.6,42,0.00,CLR,,0.00,WeatherDisplay:10.37,2013-08-15 21:08:00,
2013-08-15 17:14:00,77.6,54.0,30.06,WNW,292,2.4,3.5,44,0.00,CLR,,0.00,WeatherDisplay:10.37,2013-08-15 21:14:00,
2013-08-15 17:19:00,77.5,55.1,30.06,NW,322,2.8,3.5,46,0.00,CLR,,0.00,WeatherDisplay:10.37,2013-08-15 21:19:00,
2013-08-15 17:24:00,76.8,53.2,30.06,WNW,301,2.4,3.5,44,0.00,CLR,,0.00,WeatherDisplay:10.37,2013-08-15 21:24:00,
2013-08-15 17:29:00,76.4,54.7,30.06,WNW,301,1.1,2.3,47,0.00,CLR,,0.00,WeatherDisplay:10.37,2013-08-15 21:29:00,
2013-08-15 17:35:00,77.0,54.6,30.06,North,360,1.2,2.3,46,0.00,CLR,,0.00,WeatherDisplay:10.37,2013-08-15 21:35:00,
2013-08-15 17:40:00,77.9,55.5,30.06,North,360,1.9,3.5,46,0.00,CLR,,0.00,WeatherDisplay:10.37,2013-08-15 21:40:00,
2013-08-15 17:45:00,78.9,55.1,30.06,NNW,328,1.8,3.5,44,0.00,CLR,,0.00,WeatherDisplay:10.37,2013-08-15 21:45:00,
2013-08-15 17:50:00,79.1,54.7,30.06,NW,326,3.2,3.5,43,0.00,CLR,,0.00,WeatherDisplay:10.37,2013-08-15 21:50:00,
2013-08-15 17:55:00,78.3,55.2,30.06,NNW,333,1.1,2.3,45,0.00,CLR,,0.00,WeatherDisplay:10.37,2013-08-15 21:55:00,
2013-08-15 18:00:00,77.3,54.3,30.06,North,360,3.8,4.6,45,0.00,CLR,,0.00,WeatherDisplay:10.37,2013-08-15 22:00:00,
2013-08-15 18:05:00,76.5,56.5,30.06,North,360,0.6,1.2,50,0.00,CLR,,0.00,WeatherDisplay:10.37,2013-08-15 22:05:00,
2013-08-15 18:10:00,76.8,56.2,30.06,North,360,1.0,2.3,49,0.00,CLR,,0.00,WeatherDisplay:10.37,2013-08-15 22:10:00,
2013-08-15 18:15:00,77.6,55.8,30.06,NNW,329,0.4,1.2,47,0.00,CLR,,0.00,WeatherDisplay:10.37,2013-08-15 22:15:00,
2013-08-15 18:20:00,78.4,55.3,30.06,NNE,15,2.1,3.0,45,0.00,CLR,,0.00,WeatherDisplay:10.37,2013-08-15 22:20:00,
2013-08-15 18:25:00,79.0,57.6,30.06,NNE,15,0.1,1.2,48,0.00,CLR,,0.00,WeatherDisplay:10.37,2013-08-15 22:25:00,
2013-08-15 18:30:00,78.8,59.7,30.06,NNE,16,0.5,1.2,52,0.00,CLR,,0.00,WeatherDisplay:10.37,2013-08-15 22:30:00,
2013-08-15 18:35:00,77.9,61.4,30.06,North,360,0.8,1.2,57,0.00,CLR,,0.00,WeatherDisplay:10.37,2013-08-15 22:35:00,
2013-08-15 18:40:00,76.4,59.5,30.06,NNE,15,0.6,2.3,56,0.00,CLR,,0.00,WeatherDisplay:10.37,2013-08-15 22:40:00,
2013-08-15 18:45:00,75.4,60.5,30.06,North,360,0.1,1.2,60,0.00,CLR,,0.00,WeatherDisplay:10.37,2013-08-15 22:45:00,
2013-08-15 18:50:00,74.9,61.0,30.06,North,360,0.0,0.0,62,0.00,CLR,,0.00,WeatherDisplay:10.37,2013-08-15 22:50:00,
2013-08-15 18:55:00,74.4,60.1,30.06,North,360,0.0,0.0,61,0.00,CLR,,0.00,WeatherDisplay:10.37,2013-08-15 22:55:00,
2013-08-15 19:00:00,74.0,60.2,30.06,North,360,0.0,0.0,62,0.00,CLR,,0.00,WeatherDisplay:10.37,2013-08-15 23:00:00,
2013-08-15 19:05:00,73.7,60.3,30.06,North,360,0.0,0.0,63,0.00,CLR,,0.00,WeatherDisplay:10.37,2013-08-15 23:05:00,
2013-08-15 19:11:00,73.5,60.1,30.06,North,360,0.2,1.2,63,0.00,CLR,,0.00,WeatherDisplay:10.37,2013-08-15 23:11:00,
2013-08-15 19:16:00,73.1,59.8,30.07,North,360,0.0,1.2,63,0.00,CLR,,0.00,WeatherDisplay:10.37,2013-08-15 23:16:00,
2013-08-15 19:21:00,73.0,60.5,30.07,North,360,0.0,0.0,65,0.00,CLR,,0.00,WeatherDisplay:10.37,2013-08-15 23:21:00,
2013-08-15 19:26:00,72.8,60.8,30.07,North,360,0.0,0.0,66,0.00,CLR,,0.00,WeatherDisplay:10.37,2013-08-15 23:26:00,
2013-08-15 19:31:00,72.0,60.4,30.07,North,360,0.0,1.0,67,0.00,CLR,,0.00,WeatherDisplay:10.37,2013-08-15 23:31:00,
2013-08-15 19:36:00,70.3,59.6,30.08,NNE,16,0.9,1.2,69,0.00,CLR,,0.00,WeatherDisplay:10.37,2013-08-15 23:36:00,
2013-08-15 19:41:00,68.7,59.3,30.08,NNE,15,0.0,1.2,72,0.00,CLR,,0.00,WeatherDisplay:10.37,2013-08-15 23:41:00,
2013-08-15 19:46:00,67.6,59.0,30.08,NNE,15,1.5,3.5,74,0.00,CLR,,0.00,WeatherDisplay:10.37,2013-08-15 23:46:00,
2013-08-15 19:51:00,66.5,59.1,30.09,NNE,15,0.0,0.0,77,0.00,CLR,,0.00,WeatherDisplay:10.37,2013-08-15 23:51:00,
2013-08-15 19:56:00,65.5,58.8,30.09,NNE,15,0.0,0.0,79,0.00,CLR,,0.00,WeatherDisplay:10.37,2013-08-15 23:56:00,
2013-08-15 20:01:00,64.9,58.9,30.09,NNE,15,0.6,0.0,81,0.00,CLR,,0.00,WeatherDisplay:10.37,2013-08-16 00:01:00,
2013-08-15 20:06:00,64.0,58.4,30.09,NNE,15,0.0,0.0,82,0.00,CLR,,0.00,WeatherDisplay:10.37,2013-08-16 00:06:00,
2013-08-15 20:11:00,63.6,58.7,30.09,NNE,15,0.0,0.0,84,0.00,CLR,,0.00,WeatherDisplay:10.37,2013-08-16 00:11:00,
2013-08-15 20:16:00,63.0,58.4,30.09,NNE,15,0.0,0.0,85,0.00,CLR,,0.00,WeatherDisplay:10.37,2013-08-16 00:16:00,
2013-08-15 20:21:00,62.4,57.8,30.09,NNE,15,0.2,0.0,85,0.00,CLR,,0.00,WeatherDisplay:10.37,2013-08-16 00:21:00,
2013-08-15 20:26:00,61.8,57.6,30.09,NNE,15,0.0,0.0,86,0.00,CLR,,0.00,WeatherDisplay:10.37,2013-08-16 00:26:00,
2013-08-15 20:31:00,61.3,57.7,30.10,NNE,15,0.1,1.2,88,0.00,CLR,,0.00,WeatherDisplay:10.37,2013-08-16 00:31:00,
2013-08-15 20:37:00,60.9,57.6,30.10,NNE,15,0.0,0.0,89,0.00,CLR,,0.00,WeatherDisplay:10.37,2013-08-16 00:37:00,
2013-08-15 20:42:00,60.7,57.4,30.10,NNE,15,0.0,0.0,89,0.00,CLR,,0.00,WeatherDisplay:10.37,2013-08-16 00:42:00,
2013-08-15 20:47:00,60.3,57.4,30.10,NNE,15,0.0,0.0,90,0.00,CLR,,0.00,WeatherDisplay:10.37,2013-08-16 00:47:00,
2013-08-15 20:52:00,60.2,57.3,30.10,NNE,15,0.0,0.0,90,0.00,CLR,,0.00,WeatherDisplay:10.37,2013-08-16 00:52:00,
2013-08-15 20:57:00,60.0,57.4,30.10,NNE,15,0.0,0.0,91,0.00,CLR,,0.00,WeatherDisplay:10.37,2013-08-16 00:57:00,
2013-08-15 21:02:00,59.7,57.1,30.10,NNE,16,0.2,1.2,91,0.00,CLR,,0.00,WeatherDisplay:10.37,2013-08-16 01:02:00,
2013-08-15 21:07:00,59.5,56.9,30.11,NNE,15,0.0,0.0,91,0.00,CLR,,0.00,WeatherDisplay:10.37,2013-08-16 01:07:00,
2013-08-15 21:13:00,59.3,56.7,30.11,NNE,15,0.0,0.0,91,0.00,CLR,,0.00,WeatherDisplay:10.37,2013-08-16 01:13:00,
2013-08-15 21:18:00,59.2,56.6,30.11,NNE,15,0.0,1.2,91,0.00,CLR,,0.00,WeatherDisplay:10.37,2013-08-16 01:18:00,
2013-08-15 21:23:00,59.0,56.7,30.11,NNE,15,0.0,0.0,92,0.00,CLR,,0.00,WeatherDisplay:10.37,2013-08-16 01:23:00,
2013-08-15 21:28:00,58.9,56.6,30.11,NNE,15,0.0,0.0,92,0.00,CLR,,0.00,WeatherDisplay:10.37,2013-08-16 01:28:00,
2013-08-15 21:33:00,58.7,56.4,30.12,NNE,15,0.0,0.0,92,0.00,CLR,,0.00,WeatherDisplay:10.37,2013-08-16 01:33:00,
2013-08-15 21:39:00,58.6,56.3,30.12,NNE,15,0.0,0.0,92,0.00,CLR,,0.00,WeatherDisplay:10.37,2013-08-16 01:39:00,
2013-08-15 21:44:00,58.5,56.2,30.12,NNE,15,0.0,0.0,92,0.00,CLR,,0.00,WeatherDisplay:10.37,2013-08-16 01:44:00,
2013-08-15 21:49:00,58.4,56.1,30.12,NNE,15,0.1,0.0,92,0.00,CLR,,0.00,WeatherDisplay:10.37,2013-08-16 01:49:00,
2013-08-15 21:54:00,58.3,56.3,30.12,NNE,15,0.6,1.2,93,0.00,CLR,,0.00,WeatherDisplay:10.37,2013-08-16 01:54:00,
2013-08-15 21:59:00,58.4,56.4,30.12,NNE,15,1.6,2.3,93,0.00,CLR,,0.00,WeatherDisplay:10.37,2013-08-16 01:59:00,
2013-08-15 22:04:00,58.4,56.4,30.12,NNE,15,0.4,1.2,93,0.00,CLR,,0.00,WeatherDisplay:10.37,2013-08-16 02:04:00,
2013-08-15 22:09:00,58.4,56.4,30.12,NNE,15,0.0,0.0,93,0.00,CLR,,0.00,WeatherDisplay:10.37,2013-08-16 02:09:00,
2013-08-15 22:14:00,58.4,56.4,30.12,NNE,15,0.0,0.0,93,0.00,CLR,,0.00,WeatherDisplay:10.37,2013-08-16 02:14:00,
2013-08-15 22:19:00,58.4,56.4,30.12,NNE,15,0.0,0.0,93,0.00,CLR,,0.00,WeatherDisplay:10.37,2013-08-16 02:19:00,
2013-08-15 22:24:00,58.4,56.4,30.12,NNE,15,0.0,0.0,93,0.00,CLR,,0.00,WeatherDisplay:10.37,2013-08-16 02:24:00,
2013-08-15 22:29:00,58.4,56.4,30.12,NNE,15,0.0,0.0,93,0.00,CLR,,0.00,WeatherDisplay:10.37,2013-08-16 02:29:00,
2013-08-15 22:34:00,58.3,56.3,30.12,NNE,15,0.0,0.0,93,0.00,CLR,,0.00,WeatherDisplay:10.37,2013-08-16 02:34:00,
2013-08-15 22:40:00,58.1,56.1,30.12,NNE,15,0.0,0.0,93,0.00,CLR,,0.00,WeatherDisplay:10.37,2013-08-16 02:40:00,
2013-08-15 22:45:00,58.0,56.0,30.12,NNE,15,0.0,1.2,93,0.00,CLR,,0.00,WeatherDisplay:10.37,2013-08-16 02:45:00,
2013-08-15 22:50:00,57.8,55.8,30.12,NNE,15,0.0,1.2,93,0.00,CLR,,0.00,WeatherDisplay:10.37,2013-08-16 02:50:00,
2013-08-15 22:55:00,57.6,55.6,30.12,NNE,15,0.0,0.0,93,0.00,CLR,,0.00,WeatherDisplay:10.37,2013-08-16 02:55:00,
2013-08-15 23:00:00,57.3,55.0,30.12,NNE,15,0.0,0.0,92,0.00,CLR,,0.00,WeatherDisplay:10.37,2013-08-16 03:00:00,
2013-08-15 23:05:00,57.0,54.7,30.12,NNE,15,0.0,0.0,92,0.00,CLR,,0.00,WeatherDisplay:10.37,2013-08-16 03:05:00,
2013-08-15 23:10:00,56.6,54.3,30.12,NNE,15,0.0,0.0,92,0.00,CLR,,0.00,WeatherDisplay:10.37,2013-08-16 03:10:00,
2013-08-15 23:15:00,56.3,54.0,30.13,NNE,15,0.0,0.0,92,0.00,CLR,,0.00,WeatherDisplay:10.37,2013-08-16 03:15:00,
2013-08-15 23:20:00,56.0,53.7,30.13,NNE,15,0.0,0.0,92,0.00,CLR,,0.00,WeatherDisplay:10.37,2013-08-16 03:20:00,
2013-08-15 23:25:00,55.7,53.4,30.13,NNE,15,0.0,0.0,92,0.00,CLR,,0.00,WeatherDisplay:10.37,2013-08-16 03:25:00,
2013-08-15 23:30:00,55.4,53.4,30.13,NNE,15,0.0,0.0,93,0.00,CLR,,0.00,WeatherDisplay:10.37,2013-08-16 03:30:00,
2013-08-15 23:35:00,55.2,53.2,30.13,NNE,15,0.0,0.0,93,0.00,CLR,,0.00,WeatherDisplay:10.37,2013-08-16 03:35:00,
2013-08-15 23:40:00,54.9,52.6,30.13,NNE,15,0.0,0.0,92,0.00,CLR,,0.00,WeatherDisplay:10.37,2013-08-16 03:40:00,
2013-08-15 23:45:00,54.7,52.7,30.13,NNE,15,0.0,0.0,93,0.00,CLR,,0.00,WeatherDisplay:10.37,2013-08-16 03:45:00,
2013-08-15 23:50:00,54.4,52.4,30.13,NNE,15,0.0,0.0,93,0.00,CLR,,0.00,WeatherDisplay:10.37,2013-08-16 03:50:00,
2013-08-15 23:55:00,54.2,52.2,30.13,NNE,15,0.0,0.0,93,0.00,CLR,,0.00,WeatherDisplay:10.37,2013-08-16 03:55:00,